createdAt,value
2019-04-04T00:00:34.787Z,981.20
2019-04-04T00:01:34.754Z,981.17
2019-04-04T00:02:34.745Z,981.17
2019-04-04T00:03:34.767Z,981.10
2019-04-04T00:04:34.729Z,981.06
2019-04-04T00:05:34.715Z,981.06
2019-04-04T00:06:34.730Z,981.08
2019-04-04T00:07:34.688Z,981.12
2019-04-04T00:08:34.679Z,981.07
2019-04-04T00:09:34.728Z,981.06
2019-04-04T00:10:35.220Z,981.04
2019-04-04T00:11:35.028Z,981.06
2019-04-04T00:12:34.643Z,981.06
2019-04-04T00:13:34.621Z,980.99
2019-04-04T00:14:34.611Z,981.02
2019-04-04T00:15:34.642Z,981.02
2019-04-04T00:16:34.589Z,980.98
2019-04-04T00:17:34.577Z,980.98
2019-04-04T00:18:34.578Z,981.00
2019-04-04T00:19:34.555Z,981.06
2019-04-04T00:20:34.543Z,981.01
2019-04-04T00:21:34.678Z,981.00
2019-04-04T00:22:35.478Z,980.91
2019-04-04T00:23:37.688Z,980.88
2019-04-04T00:24:34.516Z,980.84
2019-04-04T00:25:34.490Z,980.79
2019-04-04T00:26:34.478Z,980.76
2019-04-04T00:27:34.514Z,980.78
2019-04-04T00:28:34.456Z,980.86
2019-04-04T00:29:34.443Z,981.00
2019-04-04T00:30:34.456Z,981.08
2019-04-04T00:31:34.422Z,981.15
2019-04-04T00:32:34.413Z,981.13
2019-04-04T00:33:34.442Z,981.18
2019-04-04T00:34:34.389Z,981.15
2019-04-04T00:35:34.377Z,981.14
2019-04-04T00:36:34.825Z,981.11
2019-04-04T00:37:36.110Z,981.06
2019-04-04T00:38:37.703Z,981.09
2019-04-04T00:39:34.374Z,981.10
2019-04-04T00:40:34.321Z,981.14
2019-04-04T00:41:34.311Z,981.19
2019-04-04T00:42:34.322Z,981.21
2019-04-04T00:43:34.288Z,981.16
2019-04-04T00:44:34.279Z,981.15
2019-04-04T00:45:34.303Z,981.11
2019-04-04T00:46:34.255Z,981.04
2019-04-04T00:47:34.247Z,981.06
2019-04-04T00:48:34.800Z,981.02
2019-04-04T00:49:35.542Z,981.05
2019-04-04T00:50:34.840Z,981.03
2019-04-04T00:51:34.245Z,981.09
2019-04-04T00:52:34.191Z,981.02
2019-04-04T00:53:34.178Z,980.98
2019-04-04T00:54:34.186Z,980.94
2019-04-04T00:55:34.159Z,980.90
2019-04-04T00:56:34.147Z,980.90
2019-04-04T00:57:34.190Z,980.88
2019-04-04T00:58:34.122Z,980.91
2019-04-04T00:59:34.111Z,980.88
2019-04-04T01:00:34.111Z,980.85
2019-04-04T01:01:34.089Z,980.84
2019-04-04T01:02:34.079Z,980.85
2019-04-04T01:03:34.107Z,980.82
2019-04-04T01:04:34.056Z,980.79
2019-04-04T01:05:34.045Z,980.80
2019-04-04T01:06:34.396Z,980.81
2019-04-04T01:07:35.815Z,980.78
2019-04-04T01:08:34.013Z,980.67
2019-04-04T01:09:34.050Z,980.63
2019-04-04T01:10:33.990Z,980.64
2019-04-04T01:11:33.981Z,980.64
2019-04-04T01:12:33.992Z,980.70
2019-04-04T01:13:33.957Z,980.69
2019-04-04T01:14:33.949Z,980.75
2019-04-04T01:15:33.973Z,980.74
2019-04-04T01:16:34.144Z,980.73
2019-04-04T01:17:35.022Z,980.69
2019-04-04T01:18:34.984Z,980.70
2019-04-04T01:19:33.895Z,980.67
2019-04-04T01:20:33.880Z,980.63
2019-04-04T01:21:33.916Z,980.60
2019-04-04T01:22:33.858Z,980.61
2019-04-04T01:23:33.853Z,980.48
2019-04-04T01:24:33.853Z,980.41
2019-04-04T01:25:33.827Z,980.39
2019-04-04T01:26:35.158Z,980.38
2019-04-04T01:27:34.995Z,980.36
2019-04-04T01:28:33.792Z,980.34
2019-04-04T01:29:33.780Z,980.37
2019-04-04T01:30:33.789Z,980.37
2019-04-04T01:31:33.765Z,980.41
2019-04-04T01:32:33.749Z,980.44
2019-04-04T01:33:33.772Z,980.34
2019-04-04T01:34:33.726Z,980.29
2019-04-04T01:35:33.716Z,980.27
2019-04-04T01:36:33.719Z,980.30
2019-04-04T01:37:33.696Z,980.32
2019-04-04T01:38:33.685Z,980.30
2019-04-04T01:39:33.701Z,980.32
2019-04-04T01:40:33.905Z,980.28
2019-04-04T01:41:35.959Z,980.24
2019-04-04T01:42:33.653Z,980.18
2019-04-04T01:43:33.630Z,980.22
2019-04-04T01:44:33.615Z,980.28
2019-04-04T01:45:33.656Z,980.30
2019-04-04T01:46:33.595Z,980.37
2019-04-04T01:47:33.582Z,980.38
2019-04-04T01:48:33.593Z,980.41
2019-04-04T01:49:33.563Z,980.44
2019-04-04T01:50:33.550Z,980.41
2019-04-04T01:51:33.609Z,980.39
2019-04-04T01:52:33.525Z,980.41
2019-04-04T01:53:33.516Z,980.39
2019-04-04T01:54:33.528Z,980.35
2019-04-04T01:55:35.041Z,980.41
2019-04-04T01:56:35.045Z,980.42
2019-04-04T01:57:33.501Z,980.41
2019-04-04T01:58:33.461Z,980.40
2019-04-04T01:59:33.452Z,980.37
2019-04-04T02:00:33.454Z,980.26
2019-04-04T02:01:33.426Z,980.23
2019-04-04T02:02:33.415Z,980.13
2019-04-04T02:03:33.712Z,980.10
2019-04-04T02:04:33.472Z,980.03
2019-04-04T02:05:33.381Z,980.07
2019-04-04T02:06:33.403Z,980.07
2019-04-04T02:07:33.360Z,980.06
2019-04-04T02:08:33.352Z,980.06
2019-04-04T02:09:34.564Z,980.03
2019-04-04T02:10:34.840Z,980.02
2019-04-04T02:11:33.317Z,980.05
2019-04-04T02:12:33.322Z,980.08
2019-04-04T02:13:33.296Z,980.06
2019-04-04T02:14:33.287Z,980.01
2019-04-04T02:15:33.316Z,980.03
2019-04-04T02:16:33.260Z,980.01
2019-04-04T02:17:33.252Z,980.00
2019-04-04T02:18:33.255Z,979.98
2019-04-04T02:19:33.227Z,979.97
2019-04-04T02:20:33.217Z,979.98
2019-04-04T02:21:33.243Z,980.04
2019-04-04T02:22:33.196Z,980.02
2019-04-04T02:23:33.186Z,980.00
2019-04-04T02:24:33.196Z,979.97
2019-04-04T02:25:34.112Z,979.91
2019-04-04T02:26:35.750Z,979.88
2019-04-04T02:27:33.184Z,979.90
2019-04-04T02:28:33.130Z,979.95
2019-04-04T02:29:33.122Z,979.94
2019-04-04T02:30:33.118Z,979.92
2019-04-04T02:31:33.097Z,979.90
2019-04-04T02:32:33.086Z,979.90
2019-04-04T02:33:33.302Z,979.92
2019-04-04T02:34:33.075Z,979.98
2019-04-04T02:35:33.054Z,979.96
2019-04-04T02:36:33.054Z,979.98
2019-04-04T02:37:33.032Z,979.97
2019-04-04T02:38:33.019Z,979.99
2019-04-04T02:39:35.240Z,980.00
2019-04-04T02:40:33.010Z,980.03
2019-04-04T02:41:32.988Z,980.07
2019-04-04T02:42:32.986Z,980.05
2019-04-04T02:43:32.965Z,980.03
2019-04-04T02:44:33.235Z,980.06
2019-04-04T02:45:32.984Z,980.00
2019-04-04T02:46:32.931Z,980.00
2019-04-04T02:47:32.935Z,979.93
2019-04-04T02:48:32.926Z,979.87
2019-04-04T02:49:32.899Z,979.78
2019-04-04T02:50:35.686Z,979.76
2019-04-04T02:51:32.951Z,979.73
2019-04-04T02:52:32.870Z,979.69
2019-04-04T02:53:32.857Z,979.64
2019-04-04T02:54:32.862Z,979.64
2019-04-04T02:55:32.832Z,979.55
2019-04-04T02:56:36.013Z,979.52
2019-04-04T02:57:32.844Z,979.48
2019-04-04T02:58:32.806Z,979.44
2019-04-04T02:59:32.807Z,979.44
2019-04-04T03:00:32.776Z,979.46
2019-04-04T03:01:33.304Z,979.50
2019-04-04T03:02:36.175Z,979.53
2019-04-04T03:03:32.787Z,979.59
2019-04-04T03:04:32.735Z,979.59
2019-04-04T03:05:32.788Z,979.65
2019-04-04T03:06:32.710Z,979.71
2019-04-04T03:07:32.700Z,979.76
2019-04-04T03:08:36.735Z,979.75
2019-04-04T03:09:32.716Z,979.78
2019-04-04T03:10:32.666Z,979.77
2019-04-04T03:11:32.679Z,979.73
2019-04-04T03:12:32.642Z,979.64
2019-04-04T03:13:32.631Z,979.66
2019-04-04T03:14:36.328Z,979.65
2019-04-04T03:15:32.655Z,979.74
2019-04-04T03:16:32.599Z,979.77
2019-04-04T03:17:32.812Z,979.80
2019-04-04T03:18:34.827Z,979.75
2019-04-04T03:19:32.574Z,979.76
2019-04-04T03:20:32.556Z,979.81
2019-04-04T03:21:32.597Z,979.85
2019-04-04T03:22:32.532Z,979.95
2019-04-04T03:23:33.799Z,979.92
2019-04-04T03:24:32.510Z,979.89
2019-04-04T03:25:32.535Z,979.91
2019-04-04T03:26:32.488Z,979.84
2019-04-04T03:27:32.512Z,979.77
2019-04-04T03:28:32.549Z,979.77
2019-04-04T03:29:37.379Z,979.80
2019-04-04T03:30:33.443Z,979.79
2019-04-04T03:31:37.576Z,979.76
2019-04-04T03:32:33.460Z,979.78
2019-04-04T03:33:32.845Z,979.84
2019-04-04T03:34:32.398Z,979.82
2019-04-04T03:35:32.405Z,979.84
2019-04-04T03:36:33.875Z,979.81
2019-04-04T03:37:32.367Z,979.81
2019-04-04T03:38:32.387Z,979.78
2019-04-04T03:39:32.344Z,979.78
2019-04-04T03:40:32.338Z,979.81
2019-04-04T03:41:36.022Z,979.81
2019-04-04T03:42:32.311Z,979.78
2019-04-04T03:43:32.304Z,979.76
2019-04-04T03:44:32.326Z,979.79
2019-04-04T03:45:32.294Z,979.78
2019-04-04T03:46:37.705Z,979.79
2019-04-04T03:47:33.267Z,979.76
2019-04-04T03:48:32.245Z,979.76
2019-04-04T03:49:32.234Z,979.73
2019-04-04T03:50:32.251Z,979.74
2019-04-04T03:51:32.213Z,979.72
2019-04-04T03:52:32.202Z,979.62
2019-04-04T03:53:32.202Z,979.68
2019-04-04T03:54:32.222Z,979.63
2019-04-04T03:55:32.165Z,979.61
2019-04-04T03:56:38.706Z,979.58
2019-04-04T03:57:33.140Z,979.59
2019-04-04T03:58:32.137Z,979.56
2019-04-04T03:59:33.096Z,979.65
2019-04-04T04:00:32.119Z,979.60
2019-04-04T04:01:32.101Z,979.58
2019-04-04T04:02:32.137Z,979.48
2019-04-04T04:03:32.077Z,979.47
2019-04-04T04:04:32.069Z,979.44
2019-04-04T04:05:35.544Z,979.41
2019-04-04T04:06:32.043Z,979.40
2019-04-04T04:07:32.031Z,979.33
2019-04-04T04:08:32.059Z,979.27
2019-04-04T04:09:32.010Z,979.29
2019-04-04T04:10:33.273Z,979.21
2019-04-04T04:11:32.002Z,979.21
2019-04-04T04:12:32.034Z,979.18
2019-04-04T04:13:31.977Z,979.15
2019-04-04T04:14:32.009Z,979.16
2019-04-04T04:15:31.947Z,979.20
2019-04-04T04:16:34.775Z,979.19
2019-04-04T04:17:31.937Z,979.26
2019-04-04T04:18:31.916Z,979.33
2019-04-04T04:19:31.911Z,979.31
2019-04-04T04:20:36.103Z,979.27
2019-04-04T04:21:33.038Z,979.27
2019-04-04T04:22:31.878Z,979.20
2019-04-04T04:23:31.873Z,979.16
2019-04-04T04:24:31.856Z,979.18
2019-04-04T04:25:35.302Z,979.17
2019-04-04T04:26:31.893Z,979.18
2019-04-04T04:27:31.841Z,979.17
2019-04-04T04:28:31.820Z,979.18
2019-04-04T04:29:31.816Z,979.28
2019-04-04T04:30:31.783Z,979.29
2019-04-04T04:31:31.775Z,979.24
2019-04-04T04:32:31.810Z,979.21
2019-04-04T04:33:31.870Z,979.22
2019-04-04T04:34:33.943Z,979.25
2019-04-04T04:35:31.734Z,979.27
2019-04-04T04:36:31.722Z,979.27
2019-04-04T04:37:31.728Z,979.29
2019-04-04T04:38:31.742Z,979.34
2019-04-04T04:39:36.109Z,979.26
2019-04-04T04:40:32.699Z,979.27
2019-04-04T04:41:31.669Z,979.28
2019-04-04T04:42:31.645Z,979.29
2019-04-04T04:43:33.520Z,979.30
2019-04-04T04:44:31.669Z,979.27
2019-04-04T04:45:31.616Z,979.32
2019-04-04T04:46:31.620Z,979.30
2019-04-04T04:47:31.620Z,979.33
2019-04-04T04:48:32.032Z,979.37
2019-04-04T04:49:35.325Z,979.38
2019-04-04T04:50:31.599Z,979.45
2019-04-04T04:51:31.565Z,979.42
2019-04-04T04:52:31.571Z,979.49
2019-04-04T04:53:31.529Z,979.54
2019-04-04T04:54:31.561Z,979.53
2019-04-04T04:55:31.522Z,979.55
2019-04-04T04:56:31.961Z,979.57
2019-04-04T04:57:31.505Z,979.61
2019-04-04T04:58:31.479Z,979.64
2019-04-04T04:59:31.466Z,979.63
2019-04-04T05:00:31.456Z,979.65
2019-04-04T05:01:31.491Z,979.65
2019-04-04T05:02:31.487Z,979.63
2019-04-04T05:03:31.436Z,979.65
2019-04-04T05:04:31.409Z,979.61
2019-04-04T05:05:32.065Z,979.63
2019-04-04T05:06:31.412Z,979.66
2019-04-04T05:07:31.378Z,979.73
2019-04-04T05:08:31.422Z,979.74
2019-04-04T05:09:31.367Z,979.76
2019-04-04T05:10:31.354Z,979.75
2019-04-04T05:11:31.335Z,979.78
2019-04-04T05:12:31.328Z,979.77
2019-04-04T05:13:31.310Z,979.84
2019-04-04T05:14:31.446Z,979.82
2019-04-04T05:15:32.291Z,979.83
2019-04-04T05:16:31.290Z,979.81
2019-04-04T05:17:31.272Z,979.85
2019-04-04T05:18:31.258Z,979.82
2019-04-04T05:19:31.248Z,979.79
2019-04-04T05:20:31.274Z,979.77
2019-04-04T05:21:33.726Z,979.79
2019-04-04T05:22:31.221Z,979.74
2019-04-04T05:23:31.241Z,979.71
2019-04-04T05:24:31.186Z,979.63
2019-04-04T05:25:31.878Z,979.59
2019-04-04T05:26:32.252Z,979.49
2019-04-04T05:27:31.199Z,979.50
2019-04-04T05:28:31.206Z,979.51
2019-04-04T05:29:31.140Z,979.50
2019-04-04T05:30:31.141Z,979.51
2019-04-04T05:31:31.105Z,979.56
2019-04-04T05:32:31.177Z,979.56
2019-04-04T05:33:31.633Z,979.56
2019-04-04T05:34:31.167Z,979.60
2019-04-04T05:35:31.254Z,979.59
2019-04-04T05:36:31.049Z,979.59
2019-04-04T05:37:31.069Z,979.63
2019-04-04T05:38:31.059Z,979.66
2019-04-04T05:39:31.031Z,979.69
2019-04-04T05:40:31.010Z,979.67
2019-04-04T05:41:31.066Z,979.70
2019-04-04T05:42:33.110Z,979.64
2019-04-04T05:43:30.986Z,979.63
2019-04-04T05:44:31.020Z,979.53
2019-04-04T05:45:30.956Z,979.51
2019-04-04T05:46:30.966Z,979.55
2019-04-04T05:47:30.953Z,979.51
2019-04-04T05:48:30.938Z,979.52
2019-04-04T05:49:30.920Z,979.52
2019-04-04T05:50:30.932Z,979.54
2019-04-04T05:51:30.890Z,979.54
2019-04-04T05:52:32.680Z,979.54
2019-04-04T05:53:30.862Z,979.54
2019-04-04T05:54:30.874Z,979.58
2019-04-04T05:55:30.843Z,979.63
2019-04-04T05:56:30.888Z,979.63
2019-04-04T05:57:30.839Z,979.71
2019-04-04T05:58:30.802Z,979.75
2019-04-04T05:59:30.831Z,979.74
2019-04-04T06:00:30.817Z,979.78
2019-04-04T06:01:30.801Z,979.78
2019-04-04T06:02:30.808Z,979.76
2019-04-04T06:03:30.752Z,979.77
2019-04-04T06:04:30.785Z,979.81
2019-04-04T06:05:31.890Z,979.78
2019-04-04T06:06:31.160Z,979.84
2019-04-04T06:07:30.737Z,979.86
2019-04-04T06:08:30.765Z,979.88
2019-04-04T06:09:30.806Z,979.84
2019-04-04T06:10:30.671Z,979.82
2019-04-04T06:11:30.658Z,979.85
2019-04-04T06:12:30.663Z,979.90
2019-04-04T06:13:30.640Z,979.88
2019-04-04T06:14:30.763Z,979.91
2019-04-04T06:15:32.201Z,979.93
2019-04-04T06:16:30.630Z,979.92
2019-04-04T06:17:30.623Z,979.93
2019-04-04T06:18:30.600Z,979.88
2019-04-04T06:19:30.580Z,979.90
2019-04-04T06:20:30.645Z,979.83
2019-04-04T06:21:30.549Z,979.90
2019-04-04T06:22:30.537Z,979.90
2019-04-04T06:23:30.524Z,979.95
2019-04-04T06:24:30.513Z,980.00
2019-04-04T06:25:34.413Z,980.03
2019-04-04T06:26:31.547Z,980.03
2019-04-04T06:27:30.545Z,980.00
2019-04-04T06:28:30.483Z,979.95
2019-04-04T06:29:30.462Z,980.01
2019-04-04T06:30:42.568Z,979.95
2019-04-04T06:31:31.451Z,980.01
2019-04-04T06:32:31.027Z,980.03
2019-04-04T06:33:30.426Z,979.99
2019-04-04T06:34:30.447Z,980.03
2019-04-04T06:35:30.391Z,980.03
2019-04-04T06:36:30.397Z,980.00
2019-04-04T06:37:30.437Z,979.96
2019-04-04T06:38:30.396Z,980.00
2019-04-04T06:39:30.359Z,979.99
2019-04-04T06:40:30.924Z,980.01
2019-04-04T06:41:30.697Z,980.02
2019-04-04T06:42:30.325Z,980.00
2019-04-04T06:43:30.310Z,979.99
2019-04-04T06:44:30.371Z,980.04
2019-04-04T06:45:30.289Z,980.03
2019-04-04T06:46:30.277Z,980.02
2019-04-04T06:47:32.350Z,980.07
2019-04-04T06:48:33.536Z,980.03
2019-04-04T06:49:30.294Z,980.08
2019-04-04T06:50:30.258Z,979.99
2019-04-04T06:51:30.224Z,979.98
2019-04-04T06:52:30.224Z,979.96
2019-04-04T06:53:30.199Z,979.97
2019-04-04T06:54:30.188Z,979.95
2019-04-04T06:55:30.192Z,979.99
2019-04-04T06:56:32.044Z,979.94
2019-04-04T06:57:30.164Z,979.94
2019-04-04T06:58:30.148Z,979.92
2019-04-04T06:59:30.150Z,979.92
2019-04-04T07:00:30.128Z,979.91
2019-04-04T07:01:30.115Z,979.88
2019-04-04T07:02:30.166Z,979.87
2019-04-04T07:03:30.101Z,979.92
2019-04-04T07:04:31.891Z,979.91
2019-04-04T07:05:30.074Z,979.90
2019-04-04T07:06:30.055Z,979.92
2019-04-04T07:07:30.050Z,979.91
2019-04-04T07:08:30.077Z,979.91
2019-04-04T07:09:30.029Z,979.90
2019-04-04T07:10:30.008Z,979.91
2019-04-04T07:11:30.002Z,979.91
2019-04-04T07:12:29.986Z,979.92
2019-04-04T07:13:41.658Z,979.93
2019-04-04T07:14:45.181Z,979.91
2019-04-04T07:15:30.954Z,979.91
2019-04-04T07:16:29.941Z,979.96
2019-04-04T07:17:29.939Z,979.95
2019-04-04T07:18:29.934Z,979.97
2019-04-04T07:19:29.915Z,979.85
2019-04-04T07:20:29.983Z,979.91
2019-04-04T07:21:29.947Z,979.97
2019-04-04T07:22:29.914Z,979.93
2019-04-04T07:23:29.885Z,980.05
2019-04-04T07:24:31.159Z,980.02
2019-04-04T07:25:29.848Z,980.07
2019-04-04T07:26:29.888Z,979.99
2019-04-04T07:27:29.895Z,980.01
2019-04-04T07:28:30.935Z,980.03
2019-04-04T07:29:29.819Z,980.02
2019-04-04T07:30:29.789Z,980.03
2019-04-04T07:31:33.264Z,980.01
2019-04-04T07:32:29.824Z,980.05
2019-04-04T07:33:29.760Z,980.08
2019-04-04T07:34:29.746Z,980.05
2019-04-04T07:35:29.830Z,980.05
2019-04-04T07:36:29.720Z,980.02
2019-04-04T07:37:29.721Z,980.03
2019-04-04T07:38:29.745Z,979.98
2019-04-04T07:39:31.954Z,979.98
2019-04-04T07:40:29.701Z,979.96
2019-04-04T07:41:29.694Z,979.97
2019-04-04T07:42:29.666Z,979.96
2019-04-04T07:43:29.646Z,979.95
2019-04-04T07:44:29.679Z,979.94
2019-04-04T07:45:29.628Z,979.97
2019-04-04T07:46:29.675Z,979.99
2019-04-04T07:47:29.627Z,979.99
2019-04-04T07:48:29.604Z,980.00
2019-04-04T07:49:29.593Z,980.02
2019-04-04T07:50:29.638Z,980.04
2019-04-04T07:51:30.317Z,980.09
2019-04-04T07:52:32.794Z,980.07
2019-04-04T07:53:29.573Z,980.09
2019-04-04T07:54:31.928Z,980.14
2019-04-04T07:55:29.503Z,980.11
2019-04-04T07:56:29.611Z,980.13
2019-04-04T07:57:30.266Z,980.16
2019-04-04T07:58:29.484Z,980.19
2019-04-04T07:59:31.052Z,980.17
2019-04-04T08:00:29.458Z,980.13
2019-04-04T08:01:29.494Z,980.07
2019-04-04T08:02:29.497Z,980.06
2019-04-04T08:03:29.440Z,980.08
2019-04-04T08:04:29.417Z,980.05
2019-04-04T08:05:29.421Z,980.04
2019-04-04T08:06:29.390Z,980.05
2019-04-04T08:07:29.396Z,980.04
2019-04-04T08:08:29.405Z,979.97
2019-04-04T08:09:29.357Z,979.96
2019-04-04T08:10:29.359Z,979.96
2019-04-04T08:11:29.348Z,979.97
2019-04-04T08:12:29.331Z,979.97
2019-04-04T08:13:29.312Z,980.03
2019-04-04T08:14:29.361Z,980.05
2019-04-04T08:15:29.291Z,980.07
2019-04-04T08:16:29.298Z,980.13
2019-04-04T08:17:29.274Z,980.09
2019-04-04T08:18:29.271Z,980.12
2019-04-04T08:19:29.285Z,980.01
2019-04-04T08:20:29.271Z,980.03
2019-04-04T08:21:29.233Z,980.02
2019-04-04T08:22:29.245Z,979.95
2019-04-04T08:23:29.240Z,979.92
2019-04-04T08:24:29.189Z,979.95
2019-04-04T08:25:29.196Z,979.94
2019-04-04T08:26:29.237Z,979.97
2019-04-04T08:27:29.201Z,979.95
2019-04-04T08:28:29.145Z,979.97
2019-04-04T08:29:29.152Z,980.02
2019-04-04T08:30:29.136Z,980.05
2019-04-04T08:31:29.153Z,980.06
2019-04-04T08:32:29.224Z,980.07
2019-04-04T08:33:29.131Z,980.10
2019-04-04T08:34:29.094Z,980.10
2019-04-04T08:35:29.066Z,980.06
2019-04-04T08:36:29.053Z,980.08
2019-04-04T08:37:29.061Z,980.13
2019-04-04T08:38:29.087Z,980.15
2019-04-04T08:39:29.027Z,980.14
2019-04-04T08:40:29.014Z,980.13
2019-04-04T08:41:29.010Z,980.10
2019-04-04T08:42:28.994Z,980.07
2019-04-04T08:43:28.978Z,980.10
2019-04-04T08:44:29.029Z,980.15
2019-04-04T08:45:28.956Z,980.19
2019-04-04T08:46:28.956Z,980.26
2019-04-04T08:47:28.990Z,980.22
2019-04-04T08:48:28.921Z,980.29
2019-04-04T08:49:28.915Z,980.25
2019-04-04T08:50:28.932Z,980.25
2019-04-04T08:51:28.898Z,980.28
2019-04-04T08:52:28.879Z,980.33
2019-04-04T08:53:39.367Z,980.34
2019-04-04T08:54:29.912Z,980.32
2019-04-04T08:55:28.844Z,980.30
2019-04-04T08:56:28.884Z,980.29
2019-04-04T08:57:28.821Z,980.25
2019-04-04T08:58:28.804Z,980.23
2019-04-04T08:59:28.806Z,980.20
2019-04-04T09:00:28.780Z,980.23
2019-04-04T09:01:28.770Z,980.21
2019-04-04T09:02:28.801Z,980.22
2019-04-04T09:03:28.745Z,980.24
2019-04-04T09:04:28.743Z,980.23
2019-04-04T09:05:28.727Z,980.23
2019-04-04T09:06:28.715Z,980.19
2019-04-04T09:07:28.701Z,980.16
2019-04-04T09:08:28.743Z,980.18
2019-04-04T09:09:28.696Z,980.16
2019-04-04T09:10:28.682Z,980.10
2019-04-04T09:11:28.668Z,980.11
2019-04-04T09:12:28.658Z,980.10
2019-04-04T09:13:28.640Z,980.13
2019-04-04T09:14:28.652Z,980.10
2019-04-04T09:15:28.611Z,980.12
2019-04-04T09:16:28.600Z,980.09
2019-04-04T09:17:28.594Z,980.07
2019-04-04T09:18:28.597Z,980.08
2019-04-04T09:19:28.570Z,980.07
2019-04-04T09:20:28.609Z,980.03
2019-04-04T09:21:28.547Z,980.00
2019-04-04T09:22:28.787Z,979.98
2019-04-04T09:23:28.538Z,979.97
2019-04-04T09:24:28.516Z,979.97
2019-04-04T09:25:28.609Z,980.00
2019-04-04T09:26:28.596Z,980.03
2019-04-04T09:27:28.514Z,980.00
2019-04-04T09:28:28.481Z,980.06
2019-04-04T09:29:28.490Z,980.12
2019-04-04T09:30:28.511Z,980.12
2019-04-04T09:31:28.456Z,980.16
2019-04-04T09:32:28.474Z,980.17
2019-04-04T09:33:28.464Z,980.21
2019-04-04T09:34:28.426Z,980.22
2019-04-04T09:35:28.433Z,980.21
2019-04-04T09:36:28.410Z,980.20
2019-04-04T09:37:28.374Z,980.29
2019-04-04T09:38:29.284Z,980.30
2019-04-04T09:39:28.346Z,980.31
2019-04-04T09:40:28.382Z,980.28
2019-04-04T09:41:28.335Z,980.30
2019-04-04T09:42:28.320Z,980.31
2019-04-04T09:43:28.320Z,980.32
2019-04-04T09:44:28.339Z,980.30
2019-04-04T09:45:28.304Z,980.29
2019-04-04T09:46:28.272Z,980.28
2019-04-04T09:47:28.275Z,980.30
2019-04-04T09:48:28.253Z,980.30
2019-04-04T09:49:28.254Z,980.28
2019-04-04T09:50:28.304Z,980.27
2019-04-04T09:51:28.227Z,980.22
2019-04-04T09:52:28.326Z,980.24
2019-04-04T09:53:28.208Z,980.22
2019-04-04T09:54:28.205Z,980.19
2019-04-04T09:55:28.176Z,980.13
2019-04-04T09:56:28.617Z,980.22
2019-04-04T09:57:28.176Z,980.22
2019-04-04T09:58:28.146Z,980.22
2019-04-04T09:59:28.140Z,980.22
2019-04-04T10:00:28.128Z,980.24
2019-04-04T10:01:28.123Z,980.26
2019-04-04T10:02:28.142Z,980.31
2019-04-04T10:03:28.098Z,980.39
2019-04-04T10:04:28.081Z,980.38
2019-04-04T10:05:28.091Z,980.41
2019-04-04T10:06:28.056Z,980.40
2019-04-04T10:07:28.047Z,980.44
2019-04-04T10:08:28.082Z,980.35
2019-04-04T10:09:28.047Z,980.39
2019-04-04T10:10:28.012Z,980.35
2019-04-04T10:11:27.998Z,980.36
2019-04-04T10:12:29.523Z,980.36
2019-04-04T10:13:27.989Z,980.36
2019-04-04T10:14:28.033Z,980.33
2019-04-04T10:15:27.961Z,980.24
2019-04-04T10:16:27.956Z,980.21
2019-04-04T10:17:27.930Z,980.20
2019-04-04T10:18:27.918Z,980.21
2019-04-04T10:19:27.920Z,980.26
2019-04-04T10:20:27.929Z,980.28
2019-04-04T10:21:27.896Z,980.20
2019-04-04T10:22:27.934Z,980.23
2019-04-04T10:23:27.878Z,980.20
2019-04-04T10:24:27.891Z,980.20
2019-04-04T10:25:27.857Z,980.21
2019-04-04T10:26:27.890Z,980.20
2019-04-04T10:27:27.816Z,980.24
2019-04-04T10:28:27.812Z,980.26
2019-04-04T10:29:27.791Z,980.30
2019-04-04T10:30:27.782Z,980.29
2019-04-04T10:31:27.786Z,980.32
2019-04-04T10:32:27.808Z,980.30
2019-04-04T10:33:27.775Z,980.31
2019-04-04T10:34:28.438Z,980.31
2019-04-04T10:35:27.764Z,980.28
2019-04-04T10:36:27.715Z,980.20
2019-04-04T10:37:27.727Z,980.22
2019-04-04T10:38:27.733Z,980.18
2019-04-04T10:39:28.963Z,980.14
2019-04-04T10:40:27.686Z,980.16
2019-04-04T10:41:27.664Z,980.15
2019-04-04T10:42:27.647Z,980.16
2019-04-04T10:43:27.641Z,980.15
2019-04-04T10:44:27.666Z,980.22
2019-04-04T10:45:27.645Z,980.26
2019-04-04T10:46:27.605Z,980.32
2019-04-04T10:47:27.617Z,980.25
2019-04-04T10:48:27.595Z,980.27
2019-04-04T10:49:27.585Z,980.25
2019-04-04T10:50:27.604Z,980.28
2019-04-04T10:51:27.554Z,980.32
2019-04-04T10:52:27.540Z,980.35
2019-04-04T10:53:27.526Z,980.40
2019-04-04T10:54:27.516Z,980.45
2019-04-04T10:55:27.509Z,980.44
2019-04-04T10:56:27.536Z,980.41
2019-04-04T10:57:27.478Z,980.48
2019-04-04T10:58:27.478Z,980.46
2019-04-04T10:59:27.457Z,980.47
2019-04-04T11:00:27.438Z,980.47
2019-04-04T11:01:27.440Z,980.61
2019-04-04T11:02:27.493Z,980.58
2019-04-04T11:03:27.498Z,980.63
2019-04-04T11:04:27.613Z,980.69
2019-04-04T11:05:27.394Z,980.63
2019-04-04T11:06:27.393Z,980.65
2019-04-04T11:07:28.145Z,980.63
2019-04-04T11:08:27.391Z,980.58
2019-04-04T11:09:27.349Z,980.59
2019-04-04T11:10:27.378Z,980.58
2019-04-04T11:11:27.316Z,980.61
2019-04-04T11:12:27.315Z,980.65
2019-04-04T11:13:33.336Z,980.66
2019-04-04T11:14:28.341Z,980.67
2019-04-04T11:15:27.280Z,980.74
2019-04-04T11:16:30.370Z,980.69
2019-04-04T11:17:27.268Z,980.71
2019-04-04T11:18:27.243Z,980.72
2019-04-04T11:19:31.394Z,980.70
2019-04-04T11:20:27.547Z,980.64
2019-04-04T11:21:27.238Z,980.65
2019-04-04T11:22:27.206Z,980.63
2019-04-04T11:23:27.190Z,980.55
2019-04-04T11:24:27.200Z,980.56
2019-04-04T11:25:27.172Z,980.54
2019-04-04T11:26:27.188Z,980.50
2019-04-04T11:27:27.167Z,980.56
2019-04-04T11:28:27.153Z,980.63
2019-04-04T11:29:27.128Z,980.69
2019-04-04T11:30:27.110Z,980.77
2019-04-04T11:31:27.094Z,980.87
2019-04-04T11:32:27.152Z,980.91
2019-04-04T11:33:27.078Z,980.87
2019-04-04T11:34:27.084Z,980.87
2019-04-04T11:35:27.055Z,980.86
2019-04-04T11:36:27.045Z,980.91
2019-04-04T11:37:27.049Z,980.84
2019-04-04T11:38:27.102Z,980.88
2019-04-04T11:39:27.012Z,980.95
2019-04-04T11:40:26.996Z,980.91
2019-04-04T11:41:26.985Z,980.95
2019-04-04T11:42:27.000Z,980.94
2019-04-04T11:43:26.991Z,981.02
2019-04-04T11:44:27.051Z,981.02
2019-04-04T11:45:26.944Z,981.02
2019-04-04T11:46:26.937Z,981.06
2019-04-04T11:47:26.919Z,981.03
2019-04-04T11:48:26.924Z,981.02
2019-04-04T11:49:26.898Z,981.01
2019-04-04T11:50:26.938Z,981.01
2019-04-04T11:51:26.880Z,981.03
2019-04-04T11:52:26.869Z,980.99
2019-04-04T11:53:26.855Z,981.05
2019-04-04T11:54:26.868Z,981.02
2019-04-04T11:55:26.837Z,981.01
2019-04-04T11:56:26.860Z,981.06
2019-04-04T11:57:26.808Z,981.06
2019-04-04T11:58:26.803Z,981.15
2019-04-04T11:59:26.786Z,981.14
2019-04-04T12:00:26.781Z,981.16
2019-04-04T12:01:26.783Z,981.13
2019-04-04T12:02:26.785Z,981.11
2019-04-04T12:03:26.748Z,981.11
2019-04-04T12:04:26.744Z,981.07
2019-04-04T12:05:26.721Z,981.07
2019-04-04T12:06:26.714Z,981.07
2019-04-04T12:07:26.699Z,981.09
2019-04-04T12:08:26.916Z,981.11
2019-04-04T12:09:26.682Z,981.11
2019-04-04T12:10:26.662Z,981.08
2019-04-04T12:11:26.785Z,981.09
2019-04-04T12:12:26.657Z,981.07
2019-04-04T12:13:26.687Z,981.04
2019-04-04T12:14:26.651Z,981.03
2019-04-04T12:15:26.613Z,981.03
2019-04-04T12:16:26.730Z,981.04
2019-04-04T12:17:26.593Z,981.05
2019-04-04T12:18:26.573Z,981.03
2019-04-04T12:19:26.569Z,981.07
2019-04-04T12:20:26.616Z,981.09
2019-04-04T12:21:26.570Z,981.04
2019-04-04T12:22:26.536Z,981.07
2019-04-04T12:23:26.524Z,981.06
2019-04-04T12:24:26.635Z,981.06
2019-04-04T12:25:26.514Z,981.09
2019-04-04T12:26:26.774Z,981.10
2019-04-04T12:27:26.482Z,981.09
2019-04-04T12:28:26.472Z,981.06